sensor_id;sensor_type;location;lat;lon;timestamp;P1;durP1;ratioP1;P2;durP2;ratioP2
7205;SDS011;3644;53.480;10.004;2023-12-22T00:01:05;33.23;;;4.13;;
7205;SDS011;3644;53.480;10.004;2023-12-22T00:03:30;28.47;;;4.70;;
7205;SDS011;3644;53.480;10.004;2023-12-22T00:05:56;21.10;;;4.60;;
7205;SDS011;3644;53.480;10.004;2023-12-22T00:08:21;15.77;;;4.73;;
7205;SDS011;3644;53.480;10.004;2023-12-22T00:10:48;16.03;;;3.80;;
7205;SDS011;3644;53.480;10.004;2023-12-22T00:13:14;14.73;;;4.10;;
7205;SDS011;3644;53.480;10.004;2023-12-22T00:15:39;20.73;;;4.67;;
7205;SDS011;3644;53.480;10.004;2023-12-22T00:18:05;23.33;;;4.70;;
7205;SDS011;3644;53.480;10.004;2023-12-22T00:20:31;15.40;;;3.93;;
7205;SDS011;3644;53.480;10.004;2023-12-22T00:22:56;27.67;;;4.20;;
7205;SDS011;3644;53.480;10.004;2023-12-22T00:25:22;23.20;;;5.33;;
7205;SDS011;3644;53.480;10.004;2023-12-22T00:27:47;24.70;;;4.03;;
7205;SDS011;3644;53.480;10.004;2023-12-22T00:30:13;22.37;;;4.23;;
7205;SDS011;3644;53.480;10.004;2023-12-22T00:32:39;11.33;;;4.50;;
7205;SDS011;3644;53.480;10.004;2023-12-22T00:35:04;22.13;;;4.50;;
7205;SDS011;3644;53.480;10.004;2023-12-22T00:37:30;11.70;;;2.87;;
7205;SDS011;3644;53.480;10.004;2023-12-22T00:39:55;21.07;;;4.77;;
7205;SDS011;3644;53.480;10.004;2023-12-22T00:42:21;22.57;;;4.60;;
7205;SDS011;3644;53.480;10.004;2023-12-22T00:44:47;8.13;;;3.10;;
7205;SDS011;3644;53.480;10.004;2023-12-22T00:47:12;17.33;;;4.70;;
7205;SDS011;3644;53.480;10.004;2023-12-22T00:49:37;14.70;;;3.83;;
7205;SDS011;3644;53.480;10.004;2023-12-22T00:52:03;19.80;;;3.40;;
7205;SDS011;3644;53.480;10.004;2023-12-22T00:54:29;15.33;;;3.97;;
7205;SDS011;3644;53.480;10.004;2023-12-22T00:56:56;28.20;;;5.03;;
7205;SDS011;3644;53.480;10.004;2023-12-22T00:59:22;7.43;;;4.13;;
7205;SDS011;3644;53.480;10.004;2023-12-22T01:01:48;16.23;;;3.13;;
7205;SDS011;3644;53.480;10.004;2023-12-22T01:04:13;8.10;;;2.80;;
7205;SDS011;3644;53.480;10.004;2023-12-22T01:06:39;13.13;;;3.60;;
7205;SDS011;3644;53.480;10.004;2023-12-22T01:09:05;14.97;;;3.53;;
7205;SDS011;3644;53.480;10.004;2023-12-22T01:11:31;9.73;;;3.93;;
7205;SDS011;3644;53.480;10.004;2023-12-22T01:13:56;8.70;;;3.17;;
7205;SDS011;3644;53.480;10.004;2023-12-22T01:16:22;5.07;;;2.27;;
7205;SDS011;3644;53.480;10.004;2023-12-22T01:18:48;7.43;;;2.50;;
7205;SDS011;3644;53.480;10.004;2023-12-22T01:21:15;3.83;;;2.10;;
7205;SDS011;3644;53.480;10.004;2023-12-22T01:23:41;3.43;;;2.13;;
7205;SDS011;3644;53.480;10.004;2023-12-22T01:26:06;7.23;;;2.27;;
7205;SDS011;3644;53.480;10.004;2023-12-22T01:28:33;12.17;;;2.73;;
7205;SDS011;3644;53.480;10.004;2023-12-22T01:30:59;3.50;;;2.10;;
7205;SDS011;3644;53.480;10.004;2023-12-22T01:33:25;5.33;;;3.00;;
7205;SDS011;3644;53.480;10.004;2023-12-22T01:35:50;5.03;;;2.43;;
7205;SDS011;3644;53.480;10.004;2023-12-22T01:38:16;9.73;;;2.20;;
7205;SDS011;3644;53.480;10.004;2023-12-22T01:40:41;8.23;;;2.93;;
7205;SDS011;3644;53.480;10.004;2023-12-22T01:43:07;5.87;;;2.60;;
7205;SDS011;3644;53.480;10.004;2023-12-22T01:45:32;13.23;;;2.40;;
7205;SDS011;3644;53.480;10.004;2023-12-22T01:47:58;16.63;;;3.03;;
7205;SDS011;3644;53.480;10.004;2023-12-22T01:50:23;8.10;;;2.63;;
7205;SDS011;3644;53.480;10.004;2023-12-22T01:52:49;18.27;;;2.60;;
7205;SDS011;3644;53.480;10.004;2023-12-22T01:55:15;6.07;;;3.00;;
7205;SDS011;3644;53.480;10.004;2023-12-22T01:57:42;5.57;;;2.30;;
7205;SDS011;3644;53.480;10.004;2023-12-22T02:00:09;14.47;;;3.40;;
7205;SDS011;3644;53.480;10.004;2023-12-22T02:02:36;9.70;;;2.63;;
7205;SDS011;3644;53.480;10.004;2023-12-22T02:05:03;15.10;;;2.97;;
7205;SDS011;3644;53.480;10.004;2023-12-22T02:07:29;4.73;;;2.17;;
7205;SDS011;3644;53.480;10.004;2023-12-22T02:09:55;12.00;;;2.27;;
7205;SDS011;3644;53.480;10.004;2023-12-22T02:12:21;15.00;;;2.40;;
7205;SDS011;3644;53.480;10.004;2023-12-22T02:14:47;5.80;;;2.27;;
7205;SDS011;3644;53.480;10.004;2023-12-22T02:17:26;11.67;;;2.60;;
7205;SDS011;3644;53.480;10.004;2023-12-22T02:19:58;10.43;;;2.43;;
7205;SDS011;3644;53.480;10.004;2023-12-22T02:22:23;4.10;;;2.53;;
7205;SDS011;3644;53.480;10.004;2023-12-22T02:24:49;15.23;;;2.80;;
7205;SDS011;3644;53.480;10.004;2023-12-22T02:27:27;10.90;;;2.40;;
7205;SDS011;3644;53.480;10.004;2023-12-22T02:30:37;7.60;;;2.93;;
7205;SDS011;3644;53.480;10.004;2023-12-22T02:33:04;5.90;;;2.40;;
7205;SDS011;3644;53.480;10.004;2023-12-22T02:35:32;4.47;;;2.30;;
7205;SDS011;3644;53.480;10.004;2023-12-22T02:38:00;7.30;;;2.70;;
7205;SDS011;3644;53.480;10.004;2023-12-22T02:40:28;10.33;;;2.47;;
7205;SDS011;3644;53.480;10.004;2023-12-22T02:42:54;12.57;;;3.30;;
7205;SDS011;3644;53.480;10.004;2023-12-22T02:45:20;5.70;;;2.57;;
7205;SDS011;3644;53.480;10.004;2023-12-22T02:47:46;7.83;;;1.70;;
7205;SDS011;3644;53.480;10.004;2023-12-22T02:50:13;3.90;;;2.10;;
7205;SDS011;3644;53.480;10.004;2023-12-22T02:52:40;16.33;;;2.60;;
7205;SDS011;3644;53.480;10.004;2023-12-22T02:55:06;7.40;;;2.50;;
7205;SDS011;3644;53.480;10.004;2023-12-22T02:57:32;8.70;;;3.30;;
7205;SDS011;3644;53.480;10.004;2023-12-22T02:59:58;5.50;;;2.40;;
7205;SDS011;3644;53.480;10.004;2023-12-22T03:02:24;11.57;;;2.57;;
7205;SDS011;3644;53.480;10.004;2023-12-22T03:04:49;11.80;;;2.30;;
7205;SDS011;3644;53.480;10.004;2023-12-22T03:07:15;16.73;;;2.43;;
7205;SDS011;3644;53.480;10.004;2023-12-22T03:09:41;6.90;;;1.90;;
7205;SDS011;3644;53.480;10.004;2023-12-22T03:12:08;3.27;;;1.87;;
7205;SDS011;3644;53.480;10.004;2023-12-22T03:14:34;3.83;;;2.00;;
7205;SDS011;3644;53.480;10.004;2023-12-22T03:16:59;1.33;;;1.30;;
7205;SDS011;3644;53.480;10.004;2023-12-22T03:19:25;1.30;;;1.30;;
7205;SDS011;3644;53.480;10.004;2023-12-22T03:21:51;2.97;;;1.60;;
7205;SDS011;3644;53.480;10.004;2023-12-22T03:24:17;1.33;;;1.33;;
7205;SDS011;3644;53.480;10.004;2023-12-22T03:26:44;8.70;;;1.90;;
7205;SDS011;3644;53.480;10.004;2023-12-22T03:29:10;1.50;;;1.50;;
7205;SDS011;3644;53.480;10.004;2023-12-22T03:31:36;4.03;;;1.80;;
7205;SDS011;3644;53.480;10.004;2023-12-22T03:34:01;5.73;;;1.83;;
7205;SDS011;3644;53.480;10.004;2023-12-22T03:36:27;7.80;;;2.13;;
7205;SDS011;3644;53.480;10.004;2023-12-22T03:38:52;5.70;;;1.70;;
7205;SDS011;3644;53.480;10.004;2023-12-22T03:41:18;2.67;;;1.53;;
7205;SDS011;3644;53.480;10.004;2023-12-22T03:43:43;6.53;;;1.77;;
7205;SDS011;3644;53.480;10.004;2023-12-22T03:46:09;4.67;;;1.43;;
7205;SDS011;3644;53.480;10.004;2023-12-22T03:48:34;14.77;;;2.20;;
7205;SDS011;3644;53.480;10.004;2023-12-22T03:50:59;3.70;;;1.30;;
7205;SDS011;3644;53.480;10.004;2023-12-22T03:53:25;4.10;;;1.37;;
7205;SDS011;3644;53.480;10.004;2023-12-22T03:55:50;8.47;;;1.80;;
7205;SDS011;3644;53.480;10.004;2023-12-22T03:58:16;1.60;;;1.50;;
7205;SDS011;3644;53.480;10.004;2023-12-22T04:00:41;1.97;;;1.50;;
7205;SDS011;3644;53.480;10.004;2023-12-22T04:03:07;11.97;;;2.57;;
7205;SDS011;3644;53.480;10.004;2023-12-22T04:05:32;4.00;;;2.53;;
7205;SDS011;3644;53.480;10.004;2023-12-22T04:07:58;2.10;;;1.90;;
7205;SDS011;3644;53.480;10.004;2023-12-22T04:10:23;10.27;;;2.77;;
7205;SDS011;3644;53.480;10.004;2023-12-22T04:12:49;13.70;;;1.93;;
7205;SDS011;3644;53.480;10.004;2023-12-22T04:15:14;5.23;;;1.70;;
7205;SDS011;3644;53.480;10.004;2023-12-22T04:17:40;4.20;;;2.40;;
7205;SDS011;3644;53.480;10.004;2023-12-22T04:20:06;5.70;;;2.23;;
7205;SDS011;3644;53.480;10.004;2023-12-22T04:22:32;4.50;;;1.93;;
7205;SDS011;3644;53.480;10.004;2023-12-22T04:24:57;5.00;;;2.73;;
7205;SDS011;3644;53.480;10.004;2023-12-22T04:27:23;6.40;;;2.50;;
7205;SDS011;3644;53.480;10.004;2023-12-22T04:29:48;6.93;;;3.10;;
7205;SDS011;3644;53.480;10.004;2023-12-22T04:32:14;12.63;;;2.50;;
7205;SDS011;3644;53.480;10.004;2023-12-22T04:34:39;4.90;;;2.20;;
7205;SDS011;3644;53.480;10.004;2023-12-22T04:37:05;10.10;;;3.60;;
7205;SDS011;3644;53.480;10.004;2023-12-22T04:39:30;7.33;;;2.40;;
7205;SDS011;3644;53.480;10.004;2023-12-22T04:41:56;6.90;;;2.07;;
7205;SDS011;3644;53.480;10.004;2023-12-22T04:44:21;9.30;;;2.77;;
7205;SDS011;3644;53.480;10.004;2023-12-22T04:46:47;4.83;;;2.10;;
7205;SDS011;3644;53.480;10.004;2023-12-22T04:49:12;8.17;;;2.30;;
7205;SDS011;3644;53.480;10.004;2023-12-22T04:51:38;6.73;;;2.27;;
7205;SDS011;3644;53.480;10.004;2023-12-22T04:54:03;6.27;;;2.03;;
7205;SDS011;3644;53.480;10.004;2023-12-22T04:56:29;9.33;;;4.83;;
7205;SDS011;3644;53.480;10.004;2023-12-22T04:58:54;3.67;;;1.73;;
7205;SDS011;3644;53.480;10.004;2023-12-22T05:01:20;8.60;;;2.30;;
7205;SDS011;3644;53.480;10.004;2023-12-22T05:03:45;16.07;;;2.60;;
7205;SDS011;3644;53.480;10.004;2023-12-22T05:06:11;3.80;;;1.80;;
7205;SDS011;3644;53.480;10.004;2023-12-22T05:08:37;11.70;;;1.90;;
7205;SDS011;3644;53.480;10.004;2023-12-22T05:11:02;8.17;;;2.03;;
7205;SDS011;3644;53.480;10.004;2023-12-22T05:13:28;8.87;;;3.43;;
7205;SDS011;3644;53.480;10.004;2023-12-22T05:15:53;5.93;;;2.17;;
7205;SDS011;3644;53.480;10.004;2023-12-22T05:18:20;8.40;;;2.20;;
7205;SDS011;3644;53.480;10.004;2023-12-22T05:20:45;12.57;;;2.73;;
7205;SDS011;3644;53.480;10.004;2023-12-22T05:23:11;13.37;;;2.33;;
7205;SDS011;3644;53.480;10.004;2023-12-22T05:25:36;19.40;;;2.60;;
7205;SDS011;3644;53.480;10.004;2023-12-22T05:28:02;8.10;;;2.60;;
7205;SDS011;3644;53.480;10.004;2023-12-22T05:30:28;3.10;;;1.90;;
7205;SDS011;3644;53.480;10.004;2023-12-22T05:32:53;15.93;;;2.33;;
7205;SDS011;3644;53.480;10.004;2023-12-22T05:35:19;13.63;;;2.83;;
7205;SDS011;3644;53.480;10.004;2023-12-22T05:37:45;5.90;;;1.90;;
7205;SDS011;3644;53.480;10.004;2023-12-22T05:40:10;5.17;;;2.00;;
7205;SDS011;3644;53.480;10.004;2023-12-22T05:42:36;11.90;;;2.87;;
7205;SDS011;3644;53.480;10.004;2023-12-22T05:45:02;23.07;;;2.30;;
7205;SDS011;3644;53.480;10.004;2023-12-22T05:47:28;21.83;;;2.10;;
7205;SDS011;3644;53.480;10.004;2023-12-22T05:49:54;14.03;;;3.53;;
7205;SDS011;3644;53.480;10.004;2023-12-22T05:52:19;3.00;;;2.10;;
7205;SDS011;3644;53.480;10.004;2023-12-22T05:54:45;3.73;;;1.70;;
7205;SDS011;3644;53.480;10.004;2023-12-22T05:57:10;5.93;;;1.80;;
7205;SDS011;3644;53.480;10.004;2023-12-22T05:59:36;7.47;;;2.57;;
7205;SDS011;3644;53.480;10.004;2023-12-22T06:02:01;10.87;;;2.90;;
7205;SDS011;3644;53.480;10.004;2023-12-22T06:04:27;7.37;;;2.10;;
7205;SDS011;3644;53.480;10.004;2023-12-22T06:06:53;2.73;;;1.87;;
7205;SDS011;3644;53.480;10.004;2023-12-22T06:09:19;10.30;;;2.23;;
7205;SDS011;3644;53.480;10.004;2023-12-22T06:11:45;8.33;;;2.90;;
7205;SDS011;3644;53.480;10.004;2023-12-22T06:14:11;12.20;;;2.80;;
7205;SDS011;3644;53.480;10.004;2023-12-22T06:16:37;3.17;;;2.10;;
7205;SDS011;3644;53.480;10.004;2023-12-22T06:19:04;18.37;;;2.63;;
7205;SDS011;3644;53.480;10.004;2023-12-22T06:21:29;7.53;;;2.10;;
7205;SDS011;3644;53.480;10.004;2023-12-22T06:23:54;30.13;;;2.77;;
7205;SDS011;3644;53.480;10.004;2023-12-22T06:26:20;4.37;;;2.50;;
7205;SDS011;3644;53.480;10.004;2023-12-22T06:28:45;17.33;;;3.03;;
7205;SDS011;3644;53.480;10.004;2023-12-22T06:31:17;14.20;;;3.30;;
7205;SDS011;3644;53.480;10.004;2023-12-22T06:33:44;32.13;;;4.90;;
7205;SDS011;3644;53.480;10.004;2023-12-22T06:36:20;15.00;;;3.20;;
7205;SDS011;3644;53.480;10.004;2023-12-22T06:38:50;9.80;;;2.70;;
7205;SDS011;3644;53.480;10.004;2023-12-22T06:41:22;19.63;;;2.90;;
7205;SDS011;3644;53.480;10.004;2023-12-22T06:43:52;6.37;;;2.40;;
7205;SDS011;3644;53.480;10.004;2023-12-22T06:46:19;15.57;;;2.83;;
7205;SDS011;3644;53.480;10.004;2023-12-22T06:48:45;12.93;;;2.80;;
7205;SDS011;3644;53.480;10.004;2023-12-22T06:51:20;8.13;;;2.63;;
7205;SDS011;3644;53.480;10.004;2023-12-22T06:53:47;18.17;;;2.87;;
7205;SDS011;3644;53.480;10.004;2023-12-22T06:56:14;17.47;;;2.20;;
7205;SDS011;3644;53.480;10.004;2023-12-22T06:58:47;12.57;;;2.47;;
7205;SDS011;3644;53.480;10.004;2023-12-22T07:01:20;14.00;;;3.43;;
7205;SDS011;3644;53.480;10.004;2023-12-22T07:03:47;28.80;;;4.07;;
7205;SDS011;3644;53.480;10.004;2023-12-22T07:06:13;10.80;;;3.60;;
7205;SDS011;3644;53.480;10.004;2023-12-22T07:08:43;16.47;;;3.67;;
7205;SDS011;3644;53.480;10.004;2023-12-22T07:11:09;7.87;;;2.60;;
7205;SDS011;3644;53.480;10.004;2023-12-22T07:13:35;9.70;;;2.27;;
7205;SDS011;3644;53.480;10.004;2023-12-22T07:16:01;7.47;;;2.37;;
7205;SDS011;3644;53.480;10.004;2023-12-22T07:18:27;23.30;;;3.60;;
7205;SDS011;3644;53.480;10.004;2023-12-22T07:20:56;15.23;;;3.00;;
7205;SDS011;3644;53.480;10.004;2023-12-22T07:23:22;20.47;;;3.07;;
7205;SDS011;3644;53.480;10.004;2023-12-22T07:25:48;16.00;;;3.30;;
7205;SDS011;3644;53.480;10.004;2023-12-22T07:28:13;7.13;;;4.00;;
7205;SDS011;3644;53.480;10.004;2023-12-22T07:30:38;13.73;;;4.73;;
7205;SDS011;3644;53.480;10.004;2023-12-22T07:33:04;22.33;;;4.50;;
7205;SDS011;3644;53.480;10.004;2023-12-22T07:35:30;14.40;;;3.20;;
7205;SDS011;3644;53.480;10.004;2023-12-22T07:37:55;12.50;;;2.63;;
7205;SDS011;3644;53.480;10.004;2023-12-22T07:40:21;10.50;;;2.87;;
7205;SDS011;3644;53.480;10.004;2023-12-22T07:42:47;9.23;;;2.90;;
7205;SDS011;3644;53.480;10.004;2023-12-22T07:45:12;15.97;;;4.67;;
7205;SDS011;3644;53.480;10.004;2023-12-22T07:47:38;20.40;;;3.83;;
7205;SDS011;3644;53.480;10.004;2023-12-22T07:50:04;12.23;;;3.40;;
7205;SDS011;3644;53.480;10.004;2023-12-22T07:52:33;17.57;;;2.97;;
7205;SDS011;3644;53.480;10.004;2023-12-22T07:55:02;5.70;;;2.40;;
7205;SDS011;3644;53.480;10.004;2023-12-22T07:57:29;20.93;;;3.57;;
7205;SDS011;3644;53.480;10.004;2023-12-22T07:59:54;15.30;;;2.73;;
7205;SDS011;3644;53.480;10.004;2023-12-22T08:02:21;13.37;;;2.40;;
7205;SDS011;3644;53.480;10.004;2023-12-22T08:04:47;22.93;;;2.77;;
7205;SDS011;3644;53.480;10.004;2023-12-22T08:07:14;21.37;;;3.27;;
7205;SDS011;3644;53.480;10.004;2023-12-22T08:09:39;14.23;;;2.80;;
7205;SDS011;3644;53.480;10.004;2023-12-22T08:12:05;34.97;;;3.90;;
7205;SDS011;3644;53.480;10.004;2023-12-22T08:14:30;23.63;;;2.90;;
7205;SDS011;3644;53.480;10.004;2023-12-22T08:16:56;10.53;;;2.77;;
7205;SDS011;3644;53.480;10.004;2023-12-22T08:19:21;17.60;;;4.17;;
7205;SDS011;3644;53.480;10.004;2023-12-22T08:21:47;12.33;;;3.43;;
7205;SDS011;3644;53.480;10.004;2023-12-22T08:24:12;30.37;;;4.00;;
7205;SDS011;3644;53.480;10.004;2023-12-22T08:26:38;16.17;;;3.50;;
7205;SDS011;3644;53.480;10.004;2023-12-22T08:29:04;9.60;;;2.00;;
7205;SDS011;3644;53.480;10.004;2023-12-22T08:31:29;5.80;;;2.30;;
7205;SDS011;3644;53.480;10.004;2023-12-22T08:33:55;11.03;;;3.87;;
7205;SDS011;3644;53.480;10.004;2023-12-22T08:36:20;9.53;;;2.40;;
7205;SDS011;3644;53.480;10.004;2023-12-22T08:38:46;21.50;;;2.80;;
7205;SDS011;3644;53.480;10.004;2023-12-22T08:41:11;28.90;;;4.07;;
7205;SDS011;3644;53.480;10.004;2023-12-22T08:43:39;13.60;;;3.30;;
7205;SDS011;3644;53.480;10.004;2023-12-22T08:46:05;12.63;;;2.80;;
7205;SDS011;3644;53.480;10.004;2023-12-22T08:48:30;21.27;;;3.50;;
7205;SDS011;3644;53.480;10.004;2023-12-22T08:50:56;9.07;;;2.97;;
7205;SDS011;3644;53.480;10.004;2023-12-22T08:53:22;14.80;;;3.33;;
7205;SDS011;3644;53.480;10.004;2023-12-22T08:55:47;17.33;;;2.80;;
7205;SDS011;3644;53.480;10.004;2023-12-22T08:58:13;14.50;;;2.67;;
7205;SDS011;3644;53.480;10.004;2023-12-22T09:00:38;11.47;;;3.97;;
7205;SDS011;3644;53.480;10.004;2023-12-22T09:03:04;12.80;;;4.20;;
7205;SDS011;3644;53.480;10.004;2023-12-22T09:05:29;10.57;;;2.40;;
7205;SDS011;3644;53.480;10.004;2023-12-22T09:07:55;7.90;;;2.20;;
7205;SDS011;3644;53.480;10.004;2023-12-22T09:10:20;9.90;;;2.97;;
7205;SDS011;3644;53.480;10.004;2023-12-22T09:12:46;7.70;;;2.57;;
7205;SDS011;3644;53.480;10.004;2023-12-22T09:15:11;11.37;;;3.07;;
7205;SDS011;3644;53.480;10.004;2023-12-22T09:17:38;7.57;;;2.20;;
7205;SDS011;3644;53.480;10.004;2023-12-22T09:20:03;8.70;;;2.20;;
7205;SDS011;3644;53.480;10.004;2023-12-22T09:22:29;6.10;;;2.13;;
7205;SDS011;3644;53.480;10.004;2023-12-22T09:24:54;6.83;;;2.07;;
7205;SDS011;3644;53.480;10.004;2023-12-22T09:27:20;7.53;;;2.17;;
7205;SDS011;3644;53.480;10.004;2023-12-22T09:29:45;12.77;;;2.63;;
7205;SDS011;3644;53.480;10.004;2023-12-22T09:32:11;15.50;;;3.37;;
7205;SDS011;3644;53.480;10.004;2023-12-22T09:34:37;7.53;;;3.20;;
7205;SDS011;3644;53.480;10.004;2023-12-22T09:37:04;4.27;;;2.80;;
7205;SDS011;3644;53.480;10.004;2023-12-22T09:39:29;12.20;;;2.67;;
7205;SDS011;3644;53.480;10.004;2023-12-22T09:41:54;6.90;;;3.00;;
7205;SDS011;3644;53.480;10.004;2023-12-22T09:44:20;12.30;;;2.53;;
7205;SDS011;3644;53.480;10.004;2023-12-22T09:46:49;5.60;;;3.43;;
7205;SDS011;3644;53.480;10.004;2023-12-22T09:49:18;15.47;;;3.00;;
7205;SDS011;3644;53.480;10.004;2023-12-22T09:51:45;10.37;;;2.50;;
7205;SDS011;3644;53.480;10.004;2023-12-22T09:54:11;11.33;;;3.27;;
7205;SDS011;3644;53.480;10.004;2023-12-22T09:56:38;10.93;;;2.50;;
7205;SDS011;3644;53.480;10.004;2023-12-22T09:59:09;11.60;;;3.43;;
7205;SDS011;3644;53.480;10.004;2023-12-22T10:01:38;8.40;;;2.70;;
7205;SDS011;3644;53.480;10.004;2023-12-22T10:04:09;14.03;;;2.90;;
7205;SDS011;3644;53.480;10.004;2023-12-22T10:06:35;10.50;;;3.40;;
7205;SDS011;3644;53.480;10.004;2023-12-22T10:09:01;12.37;;;2.90;;
7205;SDS011;3644;53.480;10.004;2023-12-22T10:11:30;30.53;;;2.80;;
7205;SDS011;3644;53.480;10.004;2023-12-22T10:13:57;6.30;;;2.40;;
7205;SDS011;3644;53.480;10.004;2023-12-22T10:16:25;12.63;;;4.40;;
7205;SDS011;3644;53.480;10.004;2023-12-22T10:18:51;27.10;;;3.53;;
7205;SDS011;3644;53.480;10.004;2023-12-22T10:21:16;8.30;;;2.80;;
7205;SDS011;3644;53.480;10.004;2023-12-22T10:23:42;9.53;;;2.63;;
7205;SDS011;3644;53.480;10.004;2023-12-22T10:26:10;11.20;;;2.50;;
7205;SDS011;3644;53.480;10.004;2023-12-22T10:28:36;9.97;;;2.57;;
7205;SDS011;3644;53.480;10.004;2023-12-22T10:31:02;12.37;;;3.20;;
7205;SDS011;3644;53.480;10.004;2023-12-22T10:33:31;11.17;;;3.40;;
7205;SDS011;3644;53.480;10.004;2023-12-22T10:35:58;16.07;;;3.33;;
7205;SDS011;3644;53.480;10.004;2023-12-22T10:38:24;21.60;;;4.37;;
7205;SDS011;3644;53.480;10.004;2023-12-22T10:40:50;8.57;;;2.50;;
7205;SDS011;3644;53.480;10.004;2023-12-22T10:43:16;8.50;;;2.67;;
7205;SDS011;3644;53.480;10.004;2023-12-22T10:45:42;11.80;;;2.80;;
7205;SDS011;3644;53.480;10.004;2023-12-22T10:48:07;15.37;;;3.13;;
7205;SDS011;3644;53.480;10.004;2023-12-22T10:50:33;19.70;;;3.67;;
7205;SDS011;3644;53.480;10.004;2023-12-22T10:52:58;15.20;;;2.97;;
7205;SDS011;3644;53.480;10.004;2023-12-22T10:55:25;7.03;;;2.00;;
7205;SDS011;3644;53.480;10.004;2023-12-22T10:57:50;9.20;;;1.90;;
7205;SDS011;3644;53.480;10.004;2023-12-22T11:00:16;9.47;;;3.13;;
7205;SDS011;3644;53.480;10.004;2023-12-22T11:02:47;14.23;;;2.60;;
7205;SDS011;3644;53.480;10.004;2023-12-22T11:05:15;7.20;;;1.97;;
7205;SDS011;3644;53.480;10.004;2023-12-22T11:07:45;4.67;;;1.90;;
7205;SDS011;3644;53.480;10.004;2023-12-22T11:10:14;10.60;;;2.27;;
7205;SDS011;3644;53.480;10.004;2023-12-22T11:12:45;7.33;;;2.00;;
7205;SDS011;3644;53.480;10.004;2023-12-22T11:15:12;15.37;;;2.17;;
7205;SDS011;3644;53.480;10.004;2023-12-22T11:17:40;17.43;;;2.47;;
7205;SDS011;3644;53.480;10.004;2023-12-22T11:20:10;3.03;;;2.03;;
7205;SDS011;3644;53.480;10.004;2023-12-22T11:22:38;6.13;;;2.57;;
7205;SDS011;3644;53.480;10.004;2023-12-22T11:25:05;3.00;;;1.97;;
7205;SDS011;3644;53.480;10.004;2023-12-22T11:27:33;14.30;;;2.10;;
7205;SDS011;3644;53.480;10.004;2023-12-22T11:29:58;7.80;;;2.10;;
7205;SDS011;3644;53.480;10.004;2023-12-22T11:32:26;6.00;;;2.37;;
7205;SDS011;3644;53.480;10.004;2023-12-22T11:34:53;9.90;;;2.20;;
7205;SDS011;3644;53.480;10.004;2023-12-22T11:37:21;5.03;;;2.03;;
7205;SDS011;3644;53.480;10.004;2023-12-22T11:39:47;4.83;;;3.30;;
7205;SDS011;3644;53.480;10.004;2023-12-22T11:42:17;10.30;;;2.43;;
7205;SDS011;3644;53.480;10.004;2023-12-22T11:44:46;12.60;;;2.77;;
7205;SDS011;3644;53.480;10.004;2023-12-22T11:47:12;13.43;;;2.77;;
7205;SDS011;3644;53.480;10.004;2023-12-22T11:49:39;15.63;;;3.20;;
7205;SDS011;3644;53.480;10.004;2023-12-22T11:52:48;5.30;;;2.33;;
7205;SDS011;3644;53.480;10.004;2023-12-22T11:54:55;4.77;;;2.10;;
7205;SDS011;3644;53.480;10.004;2023-12-22T11:59:53;22.43;;;2.67;;
7205;SDS011;3644;53.480;10.004;2023-12-22T12:02:32;8.70;;;2.13;;
7205;SDS011;3644;53.480;10.004;2023-12-22T12:04:59;3.23;;;1.97;;
7205;SDS011;3644;53.480;10.004;2023-12-22T12:07:36;12.73;;;2.97;;
7205;SDS011;3644;53.480;10.004;2023-12-22T12:10:06;14.60;;;2.70;;
7205;SDS011;3644;53.480;10.004;2023-12-22T12:12:32;15.23;;;2.47;;
7205;SDS011;3644;53.480;10.004;2023-12-22T12:15:00;2.50;;;2.30;;
7205;SDS011;3644;53.480;10.004;2023-12-22T12:17:50;17.13;;;2.93;;
7205;SDS011;3644;53.480;10.004;2023-12-22T12:20:15;5.70;;;2.17;;
7205;SDS011;3644;53.480;10.004;2023-12-22T12:22:42;9.43;;;2.47;;
7205;SDS011;3644;53.480;10.004;2023-12-22T12:25:08;15.10;;;3.00;;
7205;SDS011;3644;53.480;10.004;2023-12-22T12:27:35;16.17;;;2.63;;
7205;SDS011;3644;53.480;10.004;2023-12-22T12:30:12;5.00;;;2.13;;
7205;SDS011;3644;53.480;10.004;2023-12-22T12:32:40;15.07;;;2.97;;
7205;SDS011;3644;53.480;10.004;2023-12-22T12:35:08;11.73;;;3.33;;
7205;SDS011;3644;53.480;10.004;2023-12-22T12:37:33;16.20;;;3.87;;
7205;SDS011;3644;53.480;10.004;2023-12-22T12:40:00;21.83;;;3.30;;
7205;SDS011;3644;53.480;10.004;2023-12-22T12:42:29;21.87;;;4.00;;
7205;SDS011;3644;53.480;10.004;2023-12-22T12:44:58;14.33;;;3.13;;
7205;SDS011;3644;53.480;10.004;2023-12-22T12:47:24;8.80;;;3.00;;
7205;SDS011;3644;53.480;10.004;2023-12-22T12:49:59;11.93;;;3.40;;
7205;SDS011;3644;53.480;10.004;2023-12-22T12:52:25;8.70;;;2.60;;
7205;SDS011;3644;53.480;10.004;2023-12-22T12:54:51;6.23;;;3.20;;
7205;SDS011;3644;53.480;10.004;2023-12-22T12:57:17;11.63;;;2.90;;
7205;SDS011;3644;53.480;10.004;2023-12-22T12:59:49;7.23;;;3.10;;
7205;SDS011;3644;53.480;10.004;2023-12-22T13:02:15;15.70;;;2.70;;
7205;SDS011;3644;53.480;10.004;2023-12-22T13:04:42;10.40;;;2.20;;
7205;SDS011;3644;53.480;10.004;2023-12-22T13:07:08;7.53;;;2.93;;
7205;SDS011;3644;53.480;10.004;2023-12-22T13:09:35;3.40;;;2.30;;
7205;SDS011;3644;53.480;10.004;2023-12-22T13:12:01;5.03;;;2.67;;
7205;SDS011;3644;53.480;10.004;2023-12-22T13:14:28;17.83;;;2.83;;
7205;SDS011;3644;53.480;10.004;2023-12-22T13:16:53;8.97;;;3.00;;
7205;SDS011;3644;53.480;10.004;2023-12-22T13:19:21;5.27;;;2.60;;
7205;SDS011;3644;53.480;10.004;2023-12-22T13:21:50;9.40;;;2.40;;
7205;SDS011;3644;53.480;10.004;2023-12-22T13:24:17;16.43;;;2.73;;
7205;SDS011;3644;53.480;10.004;2023-12-22T13:26:42;3.53;;;2.20;;
7205;SDS011;3644;53.480;10.004;2023-12-22T13:29:09;6.23;;;2.17;;
7205;SDS011;3644;53.480;10.004;2023-12-22T13:31:38;6.87;;;2.40;;
7205;SDS011;3644;53.480;10.004;2023-12-22T13:34:09;10.33;;;2.50;;
7205;SDS011;3644;53.480;10.004;2023-12-22T13:36:35;6.70;;;2.37;;
7205;SDS011;3644;53.480;10.004;2023-12-22T13:39:02;6.80;;;2.27;;
7205;SDS011;3644;53.480;10.004;2023-12-22T13:41:31;5.23;;;2.00;;
7205;SDS011;3644;53.480;10.004;2023-12-22T13:44:06;14.03;;;2.70;;
7205;SDS011;3644;53.480;10.004;2023-12-22T13:46:32;27.93;;;6.50;;
7205;SDS011;3644;53.480;10.004;2023-12-22T13:49:00;10.90;;;4.17;;
7205;SDS011;3644;53.480;10.004;2023-12-22T13:51:27;16.83;;;7.63;;
7205;SDS011;3644;53.480;10.004;2023-12-22T13:54:03;23.10;;;8.90;;
7205;SDS011;3644;53.480;10.004;2023-12-22T13:56:32;22.03;;;8.73;;
7205;SDS011;3644;53.480;10.004;2023-12-22T13:59:00;11.83;;;3.50;;
7205;SDS011;3644;53.480;10.004;2023-12-22T14:01:25;5.97;;;2.43;;
7205;SDS011;3644;53.480;10.004;2023-12-22T14:03:51;7.23;;;3.80;;
7205;SDS011;3644;53.480;10.004;2023-12-22T14:06:17;18.43;;;2.30;;
7205;SDS011;3644;53.480;10.004;2023-12-22T14:08:42;6.43;;;2.37;;
7205;SDS011;3644;53.480;10.004;2023-12-22T14:11:08;18.67;;;2.97;;
7205;SDS011;3644;53.480;10.004;2023-12-22T14:13:34;21.70;;;2.10;;
7205;SDS011;3644;53.480;10.004;2023-12-22T14:16:04;4.10;;;1.97;;
7205;SDS011;3644;53.480;10.004;2023-12-22T14:18:33;12.00;;;3.23;;
7205;SDS011;3644;53.480;10.004;2023-12-22T14:20:58;13.17;;;2.20;;
7205;SDS011;3644;53.480;10.004;2023-12-22T14:23:24;6.53;;;1.93;;
7205;SDS011;3644;53.480;10.004;2023-12-22T14:25:50;5.80;;;2.20;;
7205;SDS011;3644;53.480;10.004;2023-12-22T14:28:15;14.30;;;2.23;;
7205;SDS011;3644;53.480;10.004;2023-12-22T14:30:41;4.57;;;2.03;;
7205;SDS011;3644;53.480;10.004;2023-12-22T14:33:06;7.70;;;2.77;;
7205;SDS011;3644;53.480;10.004;2023-12-22T14:35:32;5.50;;;1.90;;
7205;SDS011;3644;53.480;10.004;2023-12-22T14:37:57;6.60;;;1.93;;
7205;SDS011;3644;53.480;10.004;2023-12-22T14:40:23;7.53;;;2.97;;
7205;SDS011;3644;53.480;10.004;2023-12-22T14:42:49;12.83;;;2.87;;
7205;SDS011;3644;53.480;10.004;2023-12-22T14:45:15;8.30;;;3.57;;
7205;SDS011;3644;53.480;10.004;2023-12-22T14:47:41;9.53;;;2.40;;
7205;SDS011;3644;53.480;10.004;2023-12-22T14:50:06;3.90;;;2.20;;
7205;SDS011;3644;53.480;10.004;2023-12-22T14:52:32;10.07;;;2.23;;
7205;SDS011;3644;53.480;10.004;2023-12-22T14:54:58;10.20;;;2.43;;